Time;durP1;ratioP1;P1;durP2;ratioP2;P2;SDS_P1;SDS_P2;PMS_P1;PMS_P2;Temp;Humidity;BMP_temperature;BMP_pressure;BME280_temperature;BME280_humidity;BME280_pressure;Samples;Min_cycle;Max_cycle;Signal;HPM_P1;HPM_P2
2023/09/07 00:00:30;;;;;;;8.90;8.10;;;;;;;;;;4888190;29;20487;-72
2023/09/07 00:02:56;;;;;;;9.90;8.43;;;;;;;;;;4888435;29;21106;-71
2023/09/07 00:05:22;;;;;;;7.93;7.20;;;;;;;;;;4887322;29;20464;-73
2023/09/07 00:07:48;;;;;;;8.63;7.87;;;;;;;;;;4888618;29;20421;-72
2023/09/07 00:10:14;;;;;;;6.93;6.63;;;;;;;;;;4886850;29;20483;-73
2023/09/07 00:12:40;;;;;;;8.47;7.87;;;;;;;;;;4889086;29;20777;-73
2023/09/07 00:15:07;;;;;;;6.93;6.47;;;;;;;;;;4884916;29;20908;-73
2023/09/07 00:17:33;;;;;;;8.07;7.57;;;;;;;;;;4888804;29;20440;-73
2023/09/07 00:19:59;;;;;;;7.60;7.20;;;;;;;;;;4888609;29;20448;-72
2023/09/07 00:22:25;;;;;;;11.40;8.00;;;;;;;;;;4883172;29;20485;-72
2023/09/07 00:24:51;;;;;;;7.37;7.00;;;;;;;;;;4889927;29;20523;-72
2023/09/07 00:27:18;;;;;;;7.90;7.30;;;;;;;;;;4883600;29;20460;-72
2023/09/07 00:29:44;;;;;;;9.00;7.70;;;;;;;;;;4887438;29;20987;-71
2023/09/07 00:32:10;;;;;;;8.50;8.10;;;;;;;;;;4888307;29;20428;-72
2023/09/07 00:34:36;;;;;;;8.53;8.03;;;;;;;;;;4887908;29;20452;-73
2023/09/07 00:37:02;;;;;;;8.63;7.73;;;;;;;;;;4888325;29;20456;-72
2023/09/07 00:39:28;;;;;;;7.67;7.23;;;;;;;;;;4889469;29;20804;-72
2023/09/07 00:41:55;;;;;;;7.33;6.83;;;;;;;;;;4887857;29;20476;-73
2023/09/07 00:44:21;;;;;;;7.67;7.37;;;;;;;;;;4888908;29;20448;-73
2023/09/07 00:46:47;;;;;;;8.33;7.80;;;;;;;;;;4884434;29;20444;-73
2023/09/07 00:49:13;;;;;;;7.10;6.83;;;;;;;;;;4886415;29;20500;-72
2023/09/07 00:51:39;;;;;;;7.10;6.70;;;;;;;;;;4886616;29;20444;-73
2023/09/07 00:54:05;;;;;;;8.20;7.70;;;;;;;;;;4886397;29;20443;-72
2023/09/07 00:56:32;;;;;;;7.50;6.83;;;;;;;;;;4888302;29;20500;-72
2023/09/07 00:58:59;;;;;;;7.77;7.37;;;;;;;;;;4887912;29;20453;-71
2023/09/07 01:01:25;;;;;;;7.07;6.87;;;;;;;;;;4887833;29;20471;-72
2023/09/07 01:03:52;;;;;;;7.13;6.93;;;;;;;;;;4887232;29;20437;-73
2023/09/07 01:06:23;;;;;;;7.37;7.07;;;;;;;;;;4888232;29;20461;-72
2023/09/07 01:08:51;;;;;;;7.93;7.43;;;;;;;;;;4886880;29;20736;-72
2023/09/07 01:11:20;;;;;;;7.43;7.03;;;;;;;;;;4884602;29;20449;-72
2023/09/07 01:13:46;;;;;;;7.20;6.83;;;;;;;;;;4888791;29;20440;-73
2023/09/07 01:16:13;;;;;;;7.77;7.47;;;;;;;;;;4886921;29;21014;-72
2023/09/07 01:18:39;;;;;;;8.00;7.50;;;;;;;;;;4889453;29;20481;-73
2023/09/07 01:21:07;;;;;;;6.43;6.20;;;;;;;;;;4886823;29;20489;-72
2023/09/07 01:23:35;;;;;;;8.00;7.60;;;;;;;;;;4888587;29;20452;-72
2023/09/07 01:26:01;;;;;;;8.17;7.60;;;;;;;;;;4888649;29;20448;-73
2023/09/07 01:28:27;;;;;;;7.20;6.70;;;;;;;;;;4889306;29;20437;-72
2023/09/07 01:30:53;;;;;;;9.30;7.00;;;;;;;;;;4886555;29;22057;-72
2023/09/07 01:33:19;;;;;;;8.67;7.10;;;;;;;;;;4885679;29;20454;-73
2023/09/07 01:35:45;;;;;;;6.93;6.43;;;;;;;;;;4887706;29;20838;-73
2023/09/07 01:38:11;;;;;;;6.60;6.40;;;;;;;;;;4886857;29;20455;-73
2023/09/07 01:40:37;;;;;;;7.57;7.00;;;;;;;;;;4887632;29;20945;-73
2023/09/07 01:43:03;;;;;;;11.63;6.33;;;;;;;;;;4886821;29;20448;-72
2023/09/07 01:45:29;;;;;;;6.83;6.43;;;;;;;;;;4885592;29;20452;-72
2023/09/07 01:47:55;;;;;;;6.77;6.47;;;;;;;;;;4886919;29;20452;-73
2023/09/07 01:50:21;;;;;;;7.23;6.90;;;;;;;;;;4883876;29;20476;-73
2023/09/07 01:52:50;;;;;;;7.60;6.80;;;;;;;;;;4886782;29;20441;-73
2023/09/07 01:55:16;;;;;;;6.93;6.60;;;;;;;;;;4886914;29;20496;-72
2023/09/07 01:57:43;;;;;;;6.07;5.67;;;;;;;;;;4887056;29;20485;-72
2023/09/07 02:00:10;;;;;;;6.10;5.83;;;;;;;;;;4886345;29;20496;-72
2023/09/07 02:02:36;;;;;;;7.07;6.77;;;;;;;;;;4887381;29;20500;-73
2023/09/07 02:05:02;;;;;;;6.37;5.97;;;;;;;;;;4886307;29;20448;-73
2023/09/07 02:07:28;;;;;;;6.20;5.70;;;;;;;;;;4886800;29;20441;-73
2023/09/07 02:09:54;;;;;;;6.70;5.60;;;;;;;;;;4881489;29;20512;-72
2023/09/07 02:12:20;;;;;;;5.90;5.73;;;;;;;;;;4887958;29;20469;-73
2023/09/07 02:14:46;;;;;;;6.83;6.63;;;;;;;;;;4885657;29;21224;-73
2023/09/07 02:17:17;;;;;;;6.40;6.00;;;;;;;;;;4882502;29;20432;-73
2023/09/07 02:19:43;;;;;;;6.53;6.23;;;;;;;;;;4878093;29;21250;-72
2023/09/07 02:22:09;;;;;;;6.67;6.27;;;;;;;;;;4886050;29;20985;-73
2023/09/07 02:24:35;;;;;;;7.03;6.73;;;;;;;;;;4887506;29;21011;-73
2023/09/07 02:27:01;;;;;;;6.77;6.47;;;;;;;;;;4889022;29;20441;-73
2023/09/07 02:29:27;;;;;;;6.33;6.00;;;;;;;;;;4883760;29;20488;-73
2023/09/07 02:31:53;;;;;;;6.70;6.40;;;;;;;;;;4884668;29;20421;-71
2023/09/07 02:34:19;;;;;;;6.30;6.10;;;;;;;;;;4885574;29;20465;-73
2023/09/07 02:36:45;;;;;;;7.30;6.70;;;;;;;;;;4884713;29;20441;-72
2023/09/07 02:39:11;;;;;;;6.83;6.43;;;;;;;;;;4885598;29;20463;-73
2023/09/07 02:41:40;;;;;;;6.90;6.60;;;;;;;;;;4888409;29;20432;-73
2023/09/07 02:44:06;;;;;;;6.40;6.10;;;;;;;;;;4885987;29;20456;-74
2023/09/07 02:46:32;;;;;;;6.40;6.00;;;;;;;;;;4885391;29;20543;-74
2023/09/07 02:48:58;;;;;;;6.83;6.53;;;;;;;;;;4885552;29;20866;-73
2023/09/07 02:51:25;;;;;;;6.93;6.33;;;;;;;;;;4883436;29;20496;-74
2023/09/07 02:53:51;;;;;;;6.20;6.10;;;;;;;;;;4885972;29;20455;-72
2023/09/07 02:56:17;;;;;;;7.13;6.73;;;;;;;;;;4889497;29;20781;-72
2023/09/07 02:58:45;;;;;;;6.73;6.43;;;;;;;;;;4890780;29;20432;-74
2023/09/07 03:01:11;;;;;;;6.97;6.77;;;;;;;;;;4885379;29;21328;-73
2023/09/07 03:03:37;;;;;;;5.97;5.77;;;;;;;;;;4888469;29;20429;-73
2023/09/07 03:06:10;;;;;;;7.03;6.53;;;;;;;;;;4887945;29;20958;-74
2023/09/07 03:08:36;;;;;;;7.10;6.70;;;;;;;;;;4889477;29;20436;-73
2023/09/07 03:11:05;;;;;;;7.10;6.80;;;;;;;;;;4886462;29;20840;-73
2023/09/07 03:13:32;;;;;;;6.40;6.20;;;;;;;;;;4889385;29;20448;-73
2023/09/07 03:15:58;;;;;;;6.90;6.43;;;;;;;;;;4887469;29;21025;-72
2023/09/07 03:18:24;;;;;;;6.70;6.30;;;;;;;;;;4889336;29;21092;-73
2023/09/07 03:20:50;;;;;;;11.13;6.20;;;;;;;;;;4884773;29;20507;-74
2023/09/07 03:23:16;;;;;;;6.40;6.10;;;;;;;;;;4888339;29;20429;-73
2023/09/07 03:25:42;;;;;;;5.80;5.50;;;;;;;;;;4889099;29;20473;-72
2023/09/07 03:28:08;;;;;;;5.90;5.60;;;;;;;;;;4890080;29;20459;-74
2023/09/07 03:30:34;;;;;;;8.30;7.70;;;;;;;;;;4887346;29;20510;-73
2023/09/07 03:33:00;;;;;;;7.20;6.70;;;;;;;;;;4888558;29;20433;-73
2023/09/07 03:35:27;;;;;;;6.17;5.80;;;;;;;;;;4889409;29;20444;-72
2023/09/07 03:37:53;;;;;;;6.47;6.17;;;;;;;;;;4888518;29;20476;-73
2023/09/07 03:40:18;;;;;;;7.37;6.80;;;;;;;;;;4889538;29;20472;-72
2023/09/07 03:42:47;;;;;;;6.07;5.90;;;;;;;;;;4889519;29;20440;-74
2023/09/07 03:45:13;;;;;;;6.83;6.63;;;;;;;;;;4889061;29;20463;-73
2023/09/07 03:47:39;;;;;;;6.40;6.10;;;;;;;;;;4890415;29;20440;-74
2023/09/07 03:50:06;;;;;;;6.53;6.27;;;;;;;;;;4889096;29;20491;-73
2023/09/07 03:52:31;;;;;;;7.50;6.80;;;;;;;;;;4886560;29;20437;-73
2023/09/07 03:54:58;;;;;;;7.10;6.80;;;;;;;;;;4888135;29;20444;-72
2023/09/07 03:57:24;;;;;;;6.40;6.10;;;;;;;;;;4889606;29;20466;-72
2023/09/07 03:59:50;;;;;;;7.43;6.83;;;;;;;;;;4888900;29;20965;-73
2023/09/07 04:02:20;;;;;;;7.13;6.43;;;;;;;;;;4878983;29;21039;-73
2023/09/07 04:05:05;;;;;;;7.03;6.60;;;;;;;;;;4887789;29;20448;-73
2023/09/07 04:07:31;;;;;;;6.43;6.13;;;;;;;;;;4890085;29;20457;-74
2023/09/07 04:09:57;;;;;;;7.50;6.80;;;;;;;;;;4884292;29;20504;-73
2023/09/07 04:12:23;;;;;;;7.70;7.10;;;;;;;;;;4889921;29;21311;-73
2023/09/07 04:14:49;;;;;;;6.50;6.20;;;;;;;;;;4889320;29;20492;-73
2023/09/07 04:17:15;;;;;;;6.53;6.13;;;;;;;;;;4888993;29;20783;-72
2023/09/07 04:19:43;;;;;;;7.10;6.67;;;;;;;;;;4889772;29;20447;-73
2023/09/07 04:22:09;;;;;;;6.50;6.30;;;;;;;;;;4885089;29;20464;-73
2023/09/07 04:24:35;;;;;;;7.07;6.67;;;;;;;;;;4888516;29;20444;-73
2023/09/07 04:27:02;;;;;;;7.10;6.53;;;;;;;;;;4887406;29;20560;-73
2023/09/07 04:29:28;;;;;;;6.57;6.17;;;;;;;;;;4888239;29;20556;-73
2023/09/07 04:31:54;;;;;;;6.70;6.40;;;;;;;;;;4880625;29;20465;-73
2023/09/07 04:34:21;;;;;;;8.27;7.37;;;;;;;;;;4886018;29;20461;-73
2023/09/07 04:36:47;;;;;;;7.00;6.70;;;;;;;;;;4889620;29;21024;-73
2023/09/07 04:39:16;;;;;;;7.13;6.67;;;;;;;;;;4888394;29;20445;-73
2023/09/07 04:41:42;;;;;;;8.17;7.57;;;;;;;;;;4886648;29;20437;-73
2023/09/07 04:44:08;;;;;;;6.53;6.23;;;;;;;;;;4887902;29;20501;-73
2023/09/07 04:46:34;;;;;;;6.40;6.10;;;;;;;;;;4886793;29;20503;-73
2023/09/07 04:49:00;;;;;;;7.33;6.93;;;;;;;;;;4883569;29;21039;-71
2023/09/07 04:51:26;;;;;;;8.23;6.90;;;;;;;;;;4886527;29;20508;-73
2023/09/07 04:53:52;;;;;;;6.13;5.80;;;;;;;;;;4886462;29;20826;-74
2023/09/07 04:56:19;;;;;;;7.33;6.67;;;;;;;;;;4886792;29;20432;-72
2023/09/07 04:58:45;;;;;;;7.40;6.90;;;;;;;;;;4886212;29;21032;-73
2023/09/07 05:01:12;;;;;;;6.97;6.63;;;;;;;;;;4881289;29;20457;-72
2023/09/07 05:03:39;;;;;;;8.63;7.30;;;;;;;;;;4888096;29;22223;-74
2023/09/07 05:06:07;;;;;;;7.13;6.73;;;;;;;;;;4888823;29;20964;-73
2023/09/07 05:08:33;;;;;;;6.23;6.03;;;;;;;;;;4888979;29;20445;-75
2023/09/07 05:11:00;;;;;;;7.03;6.40;;;;;;;;;;4882402;29;20543;-73
2023/09/07 05:13:26;;;;;;;6.77;6.47;;;;;;;;;;4876441;29;20464;-73
2023/09/07 05:15:53;;;;;;;7.00;6.70;;;;;;;;;;4870365;29;20830;-74
2023/09/07 05:18:20;;;;;;;7.83;7.40;;;;;;;;;;4871487;29;21263;-74
2023/09/07 05:20:48;;;;;;;7.40;7.00;;;;;;;;;;4884405;29;20445;-74
2023/09/07 05:23:15;;;;;;;7.07;6.67;;;;;;;;;;4874564;29;20516;-73
2023/09/07 05:25:54;;;;;;;7.20;6.70;;;;;;;;;;4883261;29;20467;-73
2023/09/07 05:28:21;;;;;;;6.70;6.37;;;;;;;;;;4879501;29;20447;-72
2023/09/07 05:30:47;;;;;;;7.37;6.80;;;;;;;;;;4879495;29;20496;-73
2023/09/07 05:33:14;;;;;;;6.63;6.23;;;;;;;;;;4876476;29;20468;-74
2023/09/07 05:35:41;;;;;;;7.27;6.77;;;;;;;;;;4877295;29;20453;-73
2023/09/07 05:38:07;;;;;;;6.50;6.30;;;;;;;;;;4873207;29;20973;-72
2023/09/07 05:40:38;;;;;;;7.53;7.03;;;;;;;;;;4870970;29;20441;-75
2023/09/07 05:43:04;;;;;;;7.67;7.07;;;;;;;;;;4886332;29;20731;-72
2023/09/07 05:45:31;;;;;;;7.53;6.93;;;;;;;;;;4875463;29;20500;-74
2023/09/07 05:47:57;;;;;;;6.97;6.53;;;;;;;;;;4872964;29;20485;-72
2023/09/07 05:50:23;;;;;;;7.30;6.80;;;;;;;;;;4869052;29;21031;-74
2023/09/07 05:52:50;;;;;;;7.43;6.83;;;;;;;;;;4871810;29;20485;-73
2023/09/07 05:55:16;;;;;;;7.10;6.60;;;;;;;;;;4887950;29;20465;-73
2023/09/07 05:57:42;;;;;;;7.90;6.20;;;;;;;;;;4877099;29;20477;-74
2023/09/07 06:00:09;;;;;;;5.80;5.60;;;;;;;;;;4881207;29;20997;-72
2023/09/07 06:02:35;;;;;;;6.20;5.90;;;;;;;;;;4886036;29;20433;-74
2023/09/07 06:05:02;;;;;;;5.90;5.40;;;;;;;;;;4870700;29;20461;-73
2023/09/07 06:07:28;;;;;;;6.37;6.17;;;;;;;;;;4877010;29;20465;-72
2023/09/07 06:09:54;;;;;;;5.53;5.23;;;;;;;;;;4867441;29;20492;-73
2023/09/07 06:12:20;;;;;;;6.37;5.77;;;;;;;;;;4871266;29;20495;-73
2023/09/07 06:14:46;;;;;;;6.00;5.80;;;;;;;;;;4870015;29;20449;-72
2023/09/07 06:17:13;;;;;;;7.23;6.27;;;;;;;;;;4873675;29;20464;-73
2023/09/07 06:19:40;;;;;;;6.37;5.80;;;;;;;;;;4875992;29;21028;-72
2023/09/07 06:22:06;;;;;;;6.20;5.70;;;;;;;;;;4876583;29;20441;-73
2023/09/07 06:24:32;;;;;;;14.70;6.73;;;;;;;;;;4870685;29;20449;-73
2023/09/07 06:26:58;;;;;;;7.67;6.53;;;;;;;;;;4893147;29;20585;-73
2023/09/07 06:29:24;;;;;;;17.10;5.73;;;;;;;;;;4871355;29;20480;-73
2023/09/07 06:31:49;;;;;;;9.03;6.10;;;;;;;;;;4867227;29;20438;-74
2023/09/07 06:34:16;;;;;;;7.33;6.00;;;;;;;;;;4877110;29;20449;-74
2023/09/07 06:36:42;;;;;;;8.13;6.10;;;;;;;;;;4876901;29;20830;-73
2023/09/07 06:39:09;;;;;;;8.83;6.23;;;;;;;;;;4877966;29;20464;-74
2023/09/07 06:41:35;;;;;;;6.20;5.70;;;;;;;;;;4877819;29;20459;-73
2023/09/07 06:44:01;;;;;;;10.47;6.27;;;;;;;;;;4874398;29;20440;-74
2023/09/07 06:46:27;;;;;;;7.37;6.67;;;;;;;;;;4873952;29;20960;-74
2023/09/07 06:48:53;;;;;;;6.20;5.70;;;;;;;;;;4876078;29;20539;-75
2023/09/07 06:51:19;;;;;;;5.87;5.50;;;;;;;;;;4870783;29;20473;-75
2023/09/07 06:53:45;;;;;;;6.27;5.80;;;;;;;;;;4878721;29;20578;-73
2023/09/07 06:56:11;;;;;;;5.43;5.20;;;;;;;;;;4874796;29;20467;-73
2023/09/07 06:58:37;;;;;;;6.20;5.70;;;;;;;;;;4877569;29;21150;-73
2023/09/07 07:01:04;;;;;;;8.13;5.77;;;;;;;;;;4873859;29;20449;-74
2023/09/07 07:03:30;;;;;;;6.30;6.10;;;;;;;;;;4892043;29;20463;-74
2023/09/07 07:05:57;;;;;;;9.00;5.80;;;;;;;;;;4880000;29;20460;-74
2023/09/07 07:08:23;;;;;;;5.33;5.23;;;;;;;;;;4881280;29;20490;-74
2023/09/07 07:10:50;;;;;;;4.83;4.47;;;;;;;;;;4874429;29;20544;-74
2023/09/07 07:13:16;;;;;;;6.03;5.60;;;;;;;;;;4872214;29;20928;-73
2023/09/07 07:15:42;;;;;;;7.73;5.40;;;;;;;;;;4875096;29;20477;-73
2023/09/07 07:18:09;;;;;;;4.70;4.60;;;;;;;;;;4876077;29;20446;-73
2023/09/07 07:20:38;;;;;;;15.80;5.13;;;;;;;;;;4876903;29;20442;-73
2023/09/07 07:23:06;;;;;;;5.63;5.30;;;;;;;;;;4870136;29;20449;-74
2023/09/07 07:25:33;;;;;;;15.83;5.30;;;;;;;;;;4869644;29;20476;-74
2023/09/07 07:27:59;;;;;;;14.73;6.10;;;;;;;;;;4873748;29;20794;-73
2023/09/07 07:30:29;;;;;;;9.37;5.33;;;;;;;;;;4877553;29;20540;-75
2023/09/07 07:32:55;;;;;;;6.43;4.97;;;;;;;;;;4870686;29;20441;-72
2023/09/07 07:35:21;;;;;;;5.17;4.93;;;;;;;;;;4886641;29;20492;-74
2023/09/07 07:37:47;;;;;;;4.50;4.13;;;;;;;;;;4880170;29;20509;-73
2023/09/07 07:40:13;;;;;;;4.13;4.03;;;;;;;;;;4873579;29;20452;-72
2023/09/07 07:42:40;;;;;;;4.97;4.60;;;;;;;;;;4883054;29;21279;-73
2023/09/07 07:45:06;;;;;;;4.83;4.53;;;;;;;;;;4890689;29;20495;-74
2023/09/07 07:47:32;;;;;;;4.50;4.30;;;;;;;;;;4891432;29;20475;-73
2023/09/07 07:49:58;;;;;;;4.60;4.50;;;;;;;;;;4885644;29;20479;-74
2023/09/07 07:52:24;;;;;;;4.60;4.40;;;;;;;;;;4891954;29;20412;-74
2023/09/07 07:54:50;;;;;;;5.90;5.10;;;;;;;;;;4888027;29;20424;-74
2023/09/07 07:57:16;;;;;;;3.87;3.77;;;;;;;;;;4891495;29;20769;-73
2023/09/07 07:59:42;;;;;;;4.60;4.30;;;;;;;;;;4890108;29;20455;-73
2023/09/07 08:02:08;;;;;;;4.37;4.17;;;;;;;;;;4890984;29;20747;-73
2023/09/07 08:04:35;;;;;;;4.53;4.10;;;;;;;;;;4891021;29;20437;-73
2023/09/07 08:07:04;;;;;;;4.60;4.30;;;;;;;;;;4891115;29;20469;-73
2023/09/07 08:09:33;;;;;;;4.10;3.80;;;;;;;;;;4886688;29;20472;-73
2023/09/07 08:12:02;;;;;;;7.17;6.77;;;;;;;;;;4887385;29;20883;-73
2023/09/07 08:14:28;;;;;;;7.30;5.23;;;;;;;;;;4884909;29;20436;-73
2023/09/07 08:16:55;;;;;;;4.73;4.40;;;;;;;;;;4882593;29;20457;-73
2023/09/07 08:19:21;;;;;;;4.43;4.23;;;;;;;;;;4882993;29;20481;-72
2023/09/07 08:21:47;;;;;;;4.20;3.90;;;;;;;;;;4882841;29;20481;-73
2023/09/07 08:24:13;;;;;;;3.90;3.80;;;;;;;;;;4882116;29;21217;-73
2023/09/07 08:26:39;;;;;;;3.73;3.53;;;;;;;;;;4881849;29;20834;-73
2023/09/07 08:29:06;;;;;;;4.53;4.30;;;;;;;;;;4873583;29;20464;-74
2023/09/07 08:31:33;;;;;;;4.20;3.90;;;;;;;;;;4872270;29;20499;-73
2023/09/07 08:34:02;;;;;;;3.90;3.90;;;;;;;;;;4870818;29;20516;-73
2023/09/07 08:36:29;;;;;;;4.73;4.53;;;;;;;;;;4872699;29;20547;-71
2023/09/07 08:38:55;;;;;;;4.67;4.37;;;;;;;;;;4870797;29;20483;-72
2023/09/07 08:41:21;;;;;;;4.10;3.90;;;;;;;;;;4875736;29;21048;-72
2023/09/07 08:43:49;;;;;;;4.70;4.27;;;;;;;;;;4873989;29;20540;-72
2023/09/07 08:46:16;;;;;;;4.33;4.23;;;;;;;;;;4870781;29;20623;-73
2023/09/07 08:48:46;;;;;;;4.00;3.90;;;;;;;;;;4872900;29;20469;-72
2023/09/07 08:51:13;;;;;;;3.60;3.50;;;;;;;;;;4868653;29;20817;-73
2023/09/07 08:53:40;;;;;;;3.80;3.70;;;;;;;;;;4871896;29;20943;-73
2023/09/07 08:56:09;;;;;;;4.30;4.10;;;;;;;;;;4868413;29;20457;-72
2023/09/07 08:58:36;;;;;;;4.47;4.27;;;;;;;;;;4872738;29;20438;-72
2023/09/07 09:01:02;;;;;;;4.27;4.17;;;;;;;;;;4878955;29;20477;-72
2023/09/07 09:03:30;;;;;;;7.17;4.80;;;;;;;;;;4875743;29;20517;-72
2023/09/07 09:05:57;;;;;;;4.23;4.13;;;;;;;;;;4880968;29;20676;-73
2023/09/07 09:08:24;;;;;;;4.60;4.40;;;;;;;;;;4878500;29;20583;-72
2023/09/07 09:11:00;;;;;;;3.83;3.83;;;;;;;;;;4872247;29;20520;-75
2023/09/07 09:13:30;;;;;;;3.83;3.63;;;;;;;;;;4880613;29;21124;-72
2023/09/07 09:15:59;;;;;;;4.70;4.40;;;;;;;;;;4872417;29;20454;-73
2023/09/07 09:18:26;;;;;;;3.90;3.80;;;;;;;;;;4874431;29;21187;-75
2023/09/07 09:20:52;;;;;;;4.00;3.93;;;;;;;;;;4870368;29;20525;-73
2023/09/07 09:23:18;;;;;;;5.53;5.33;;;;;;;;;;4873582;29;20929;-72
2023/09/07 09:25:45;;;;;;;4.73;4.53;;;;;;;;;;4877104;29;20899;-72
2023/09/07 09:28:11;;;;;;;4.23;4.23;;;;;;;;;;4880004;29;20810;-77
2023/09/07 09:30:37;;;;;;;3.50;3.50;;;;;;;;;;4876239;29;20483;-74
2023/09/07 09:33:05;;;;;;;4.97;4.87;;;;;;;;;;4875063;29;20460;-74
2023/09/07 09:35:31;;;;;;;5.00;4.53;;;;;;;;;;4878367;29;20459;-73
2023/09/07 09:38:04;;;;;;;4.00;3.90;;;;;;;;;;4877026;29;20476;-74
2023/09/07 09:40:30;;;;;;;3.67;3.57;;;;;;;;;;4875265;29;20455;-73
2023/09/07 09:42:57;;;;;;;4.50;4.40;;;;;;;;;;4876308;29;20512;-73
2023/09/07 09:45:23;;;;;;;3.90;3.90;;;;;;;;;;4875476;29;20535;-74
2023/09/07 09:47:51;;;;;;;4.57;4.47;;;;;;;;;;4874798;29;20547;-73
2023/09/07 09:50:19;;;;;;;3.83;3.83;;;;;;;;;;4870164;29;20476;-74
2023/09/07 09:52:45;;;;;;;4.27;4.17;;;;;;;;;;4874101;29;20445;-74
2023/09/07 09:55:13;;;;;;;5.43;4.60;;;;;;;;;;4872421;29;20461;-72
2023/09/07 09:57:39;;;;;;;4.50;4.40;;;;;;;;;;4868595;29;21227;-74
2023/09/07 10:00:19;;;;;;;3.93;3.80;;;;;;;;;;4874463;29;20983;-73
2023/09/07 10:03:05;;;;;;;4.87;4.00;;;;;;;;;;4876514;29;20508;-72
2023/09/07 10:05:33;;;;;;;4.20;4.10;;;;;;;;;;4871476;29;20515;-74
2023/09/07 10:08:05;;;;;;;4.33;4.23;;;;;;;;;;4874000;29;20463;-72
2023/09/07 10:10:34;;;;;;;3.93;3.83;;;;;;;;;;4873410;29;20478;-73
2023/09/07 10:13:00;;;;;;;4.37;4.27;;;;;;;;;;4870922;29;21067;-73
2023/09/07 10:15:27;;;;;;;4.27;4.17;;;;;;;;;;4864903;29;20543;-74
2023/09/07 10:18:08;;;;;;;4.20;3.97;;;;;;;;;;4873126;29;20531;-72
2023/09/07 10:21:07;;;;;;;4.50;4.40;;;;;;;;;;4886220;29;21482;-73
2023/09/07 10:23:37;;;;;;;4.20;4.00;;;;;;;;;;4841712;29;20461;-74
2023/09/07 10:26:07;;;;;;;4.00;3.73;;;;;;;;;;4873507;29;20506;-75
2023/09/07 10:28:33;;;;;;;4.60;4.40;;;;;;;;;;4869129;29;21624;-72
2023/09/07 10:31:14;;;;;;;3.30;3.30;;;;;;;;;;4876618;29;20476;-73
2023/09/07 10:33:40;;;;;;;3.73;3.63;;;;;;;;;;4874019;29;20904;-73
2023/09/07 10:36:07;;;;;;;4.03;3.83;;;;;;;;;;4877837;29;20448;-73
2023/09/07 10:38:33;;;;;;;4.23;3.90;;;;;;;;;;4878019;29;20456;-72
2023/09/07 10:41:00;;;;;;;3.67;3.57;;;;;;;;;;4873113;29;20477;-73
2023/09/07 10:43:30;;;;;;;3.80;3.80;;;;;;;;;;4877420;29;20536;-72
2023/09/07 10:45:56;;;;;;;3.80;3.80;;;;;;;;;;4875954;29;20464;-72
2023/09/07 10:48:26;;;;;;;3.73;3.73;;;;;;;;;;4874987;29;20441;-73
2023/09/07 10:50:52;;;;;;;3.50;3.50;;;;;;;;;;4876205;29;20515;-72
2023/09/07 10:53:25;;;;;;;3.80;3.70;;;;;;;;;;4876489;29;20442;-72
2023/09/07 10:55:52;;;;;;;3.77;3.60;;;;;;;;;;4877137;29;20475;-73
2023/09/07 10:58:26;;;;;;;3.47;3.37;;;;;;;;;;4880144;29;20457;-73
2023/09/07 11:00:56;;;;;;;3.90;3.80;;;;;;;;;;4866440;29;20839;-71
2023/09/07 11:03:22;;;;;;;4.33;4.13;;;;;;;;;;4871115;29;20453;-73
2023/09/07 11:05:48;;;;;;;4.40;4.27;;;;;;;;;;4871814;29;20449;-73
2023/09/07 11:08:15;;;;;;;3.70;3.70;;;;;;;;;;4878600;29;20469;-71
2023/09/07 11:10:42;;;;;;;4.13;3.93;;;;;;;;;;4876448;29;20484;-72
2023/09/07 11:13:08;;;;;;;5.13;4.93;;;;;;;;;;4874690;29;20445;-72
2023/09/07 11:15:35;;;;;;;4.17;4.03;;;;;;;;;;4868114;29;20502;-73
2023/09/07 11:18:05;;;;;;;3.90;3.80;;;;;;;;;;4879104;29;20488;-72
2023/09/07 11:20:31;;;;;;;4.10;3.97;;;;;;;;;;4874232;29;20445;-73
2023/09/07 11:22:57;;;;;;;3.80;3.60;;;;;;;;;;4876574;29;20437;-74
2023/09/07 11:25:23;;;;;;;3.80;3.63;;;;;;;;;;4877940;29;20448;-74
2023/09/07 11:27:54;;;;;;;4.70;4.50;;;;;;;;;;4876332;29;20864;-72
2023/09/07 11:30:21;;;;;;;3.73;3.53;;;;;;;;;;4877726;29;20477;-73
2023/09/07 11:32:47;;;;;;;3.90;3.70;;;;;;;;;;4883472;29;20535;-73
2023/09/07 11:35:16;;;;;;;4.10;3.90;;;;;;;;;;4881934;29;20530;-74
2023/09/07 11:37:42;;;;;;;4.07;3.77;;;;;;;;;;4878372;29;20457;-75
2023/09/07 11:40:12;;;;;;;3.70;3.60;;;;;;;;;;4879938;29;20635;-73
2023/09/07 11:42:38;;;;;;;4.87;3.40;;;;;;;;;;4879593;29;21085;-73
2023/09/07 11:45:06;;;;;;;3.23;3.13;;;;;;;;;;4876036;29;21035;-72
2023/09/07 11:47:34;;;;;;;4.03;3.80;;;;;;;;;;4881841;29;20502;-72
2023/09/07 11:50:00;;;;;;;3.87;3.77;;;;;;;;;;4876948;29;20468;-73
2023/09/07 11:52:26;;;;;;;4.10;4.00;;;;;;;;;;4880935;29;20445;-74
2023/09/07 11:54:52;;;;;;;3.67;3.67;;;;;;;;;;4877357;29;20456;-74
2023/09/07 11:57:18;;;;;;;3.77;3.77;;;;;;;;;;4876259;29;20536;-72
2023/09/07 11:59:44;;;;;;;3.43;3.43;;;;;;;;;;4875107;29;20976;-72
2023/09/07 12:02:14;;;;;;;3.13;3.13;;;;;;;;;;4882302;29;20471;-72
2023/09/07 12:04:40;;;;;;;3.27;3.27;;;;;;;;;;4877043;29;21226;-73
2023/09/07 12:07:06;;;;;;;3.40;3.40;;;;;;;;;;4875316;29;20456;-74
2023/09/07 12:09:32;;;;;;;3.57;3.57;;;;;;;;;;4874121;29;21086;-74
2023/09/07 12:11:58;;;;;;;5.63;5.10;;;;;;;;;;4877316;29;20474;-73
2023/09/07 12:14:24;;;;;;;3.60;3.50;;;;;;;;;;4878951;29;20456;-71
2023/09/07 12:16:50;;;;;;;3.30;3.30;;;;;;;;;;4878254;29;20449;-73
2023/09/07 12:19:16;;;;;;;3.87;3.77;;;;;;;;;;4881284;29;20480;-73
2023/09/07 12:21:42;;;;;;;4.00;3.80;;;;;;;;;;4878694;29;20535;-73
2023/09/07 12:24:09;;;;;;;3.83;3.73;;;;;;;;;;4876289;29;20825;-73
2023/09/07 12:26:35;;;;;;;3.77;3.73;;;;;;;;;;4879582;29;20974;-73
2023/09/07 12:29:01;;;;;;;4.23;4.23;;;;;;;;;;4877532;29;20532;-73
2023/09/07 12:31:27;;;;;;;4.13;4.03;;;;;;;;;;4887974;29;20465;-73
2023/09/07 12:33:55;;;;;;;3.60;3.60;;;;;;;;;;4878264;29;20497;-72
2023/09/07 12:36:21;;;;;;;5.23;4.30;;;;;;;;;;4875516;29;20512;-73
2023/09/07 12:38:47;;;;;;;3.40;3.40;;;;;;;;;;4871387;29;20450;-73
2023/09/07 12:41:14;;;;;;;3.87;3.77;;;;;;;;;;4872820;29;20546;-72
2023/09/07 12:43:40;;;;;;;4.00;4.00;;;;;;;;;;4878118;29;20817;-73
2023/09/07 12:46:06;;;;;;;4.17;3.97;;;;;;;;;;4874212;29;20922;-73
2023/09/07 12:48:32;;;;;;;4.17;3.70;;;;;;;;;;4878348;29;20576;-73
2023/09/07 12:50:59;;;;;;;4.40;4.10;;;;;;;;;;4874732;29;20473;-71
2023/09/07 12:53:26;;;;;;;4.50;4.13;;;;;;;;;;4874991;29;20468;-73
2023/09/07 12:55:52;;;;;;;4.90;4.70;;;;;;;;;;4876627;29;21288;-73
2023/09/07 12:58:18;;;;;;;3.97;3.73;;;;;;;;;;4871237;29;20462;-73
2023/09/07 13:00:44;;;;;;;4.57;4.43;;;;;;;;;;4878682;29;20564;-73
2023/09/07 13:03:12;;;;;;;5.53;4.70;;;;;;;;;;4871560;29;20663;-73
2023/09/07 13:05:38;;;;;;;8.30;4.93;;;;;;;;;;4871827;29;20456;-73
2023/09/07 13:08:04;;;;;;;9.33;4.13;;;;;;;;;;4874548;29;20457;-73
2023/09/07 13:10:30;;;;;;;4.73;4.53;;;;;;;;;;4878584;29;21100;-74
2023/09/07 13:12:56;;;;;;;8.03;4.90;;;;;;;;;;4877274;29;20452;-74
2023/09/07 13:15:22;;;;;;;6.53;5.90;;;;;;;;;;4879146;29;21131;-73
2023/09/07 13:17:48;;;;;;;5.20;5.00;;;;;;;;;;4873160;29;20445;-73
2023/09/07 13:20:14;;;;;;;4.23;4.23;;;;;;;;;;4874998;29;20475;-72
2023/09/07 13:22:40;;;;;;;4.57;4.47;;;;;;;;;;4876582;29;20451;-73
2023/09/07 13:25:06;;;;;;;5.87;5.67;;;;;;;;;;4876456;29;20449;-73
2023/09/07 13:27:32;;;;;;;4.90;4.60;;;;;;;;;;4875051;29;20541;-73
2023/09/07 13:29:58;;;;;;;4.60;4.50;;;;;;;;;;4872752;29;20526;-74
2023/09/07 13:32:24;;;;;;;4.50;4.40;;;;;;;;;;4877008;29;20445;-73
2023/09/07 13:34:54;;;;;;;5.67;5.43;;;;;;;;;;4879029;29;20483;-73
2023/09/07 13:37:20;;;;;;;4.63;4.53;;;;;;;;;;4875537;29;20483;-72
2023/09/07 13:39:46;;;;;;;4.20;4.10;;;;;;;;;;4873289;29;20476;-72
2023/09/07 13:42:12;;;;;;;4.80;4.23;;;;;;;;;;4893723;29;20445;-72
2023/09/07 13:44:38;;;;;;;4.53;4.53;;;;;;;;;;4875203;29;21603;-74
2023/09/07 13:47:04;;;;;;;4.60;4.40;;;;;;;;;;4878491;29;20453;-74
2023/09/07 13:49:30;;;;;;;5.00;4.90;;;;;;;;;;4875321;29;20492;-72
2023/09/07 13:51:56;;;;;;;4.87;4.70;;;;;;;;;;4874719;29;20453;-72
2023/09/07 13:54:22;;;;;;;4.67;4.50;;;;;;;;;;4880013;29;20512;-73
2023/09/07 13:56:54;;;;;;;4.60;4.50;;;;;;;;;;4874618;29;20456;-72
2023/09/07 13:59:20;;;;;;;5.60;5.07;;;;;;;;;;4877406;29;20440;-73
2023/09/07 14:01:46;;;;;;;4.47;4.37;;;;;;;;;;4875896;29;20461;-72
2023/09/07 14:04:12;;;;;;;5.80;5.33;;;;;;;;;;4881454;29;20445;-75
2023/09/07 14:06:38;;;;;;;5.23;5.13;;;;;;;;;;4877582;29;20449;-72
2023/09/07 14:09:06;;;;;;;5.70;5.40;;;;;;;;;;4876835;29;21387;-72
2023/09/07 14:11:33;;;;;;;5.50;5.40;;;;;;;;;;4871866;29;20533;-72
2023/09/07 14:14:02;;;;;;;4.17;4.10;;;;;;;;;;4867637;29;20450;-73
2023/09/07 14:16:28;;;;;;;4.93;4.83;;;;;;;;;;4873748;29;20432;-74
2023/09/07 14:18:54;;;;;;;5.13;4.93;;;;;;;;;;4879555;29;20948;-73
2023/09/07 14:21:20;;;;;;;4.50;4.40;;;;;;;;;;4874104;29;20456;-73
2023/09/07 14:23:46;;;;;;;5.00;4.90;;;;;;;;;;4869120;29;20444;-72
2023/09/07 14:26:12;;;;;;;5.40;5.17;;;;;;;;;;4875370;29;20445;-74
2023/09/07 14:28:39;;;;;;;5.23;4.80;;;;;;;;;;4876528;29;20872;-73
2023/09/07 14:31:07;;;;;;;4.90;4.83;;;;;;;;;;4869748;29;20472;-75
2023/09/07 14:33:33;;;;;;;4.90;4.70;;;;;;;;;;4870825;29;20891;-77
2023/09/07 14:35:59;;;;;;;5.17;4.97;;;;;;;;;;4878243;29;20444;-75
2023/09/07 14:38:29;;;;;;;4.30;4.20;;;;;;;;;;4877617;29;20520;-75
2023/09/07 14:40:55;;;;;;;5.13;4.80;;;;;;;;;;4873868;29;20528;-75